createdAt,value
2023-04-17T00:00:21.025Z,15.77
2023-04-17T00:02:47.987Z,13.52
2023-04-17T00:05:17.038Z,14.48
2023-04-17T00:07:44.924Z,15.75
2023-04-17T00:10:12.367Z,13.95
2023-04-17T00:12:39.360Z,14.60
2023-04-17T00:15:07.049Z,14.93
2023-04-17T00:17:34.185Z,15.18
2023-04-17T00:20:01.212Z,14.27
2023-04-17T00:22:28.154Z,14.13
2023-04-17T00:24:55.148Z,15.07
2023-04-17T00:27:22.123Z,13.88
2023-04-17T00:29:49.087Z,14.15
2023-04-17T00:32:15.946Z,13.57
2023-04-17T00:34:42.903Z,13.30
2023-04-17T00:37:09.868Z,13.27
2023-04-17T00:39:36.847Z,14.65
2023-04-17T00:42:04.291Z,17.17
2023-04-17T00:44:31.213Z,13.05
2023-04-17T00:46:58.745Z,16.42
2023-04-17T00:49:28.125Z,15.30
2023-04-17T00:51:55.932Z,15.77
2023-04-17T00:54:24.645Z,16.15
2023-04-17T00:56:54.574Z,13.82
2023-04-17T00:59:23.077Z,14.98
2023-04-17T01:01:50.241Z,13.00
2023-04-17T01:04:17.450Z,14.70
2023-04-17T01:06:44.736Z,16.80
2023-04-17T01:09:12.390Z,14.85
2023-04-17T01:11:39.725Z,14.63
2023-04-17T01:14:06.849Z,16.27
2023-04-17T01:16:33.931Z,14.88
2023-04-17T01:19:01.410Z,14.38
2023-04-17T01:21:28.428Z,14.38
2023-04-17T01:23:56.101Z,17.25
2023-04-17T01:26:31.771Z,14.90
2023-04-17T01:29:00.158Z,15.57
2023-04-17T01:31:29.501Z,16.25
2023-04-17T01:33:56.732Z,16.70
2023-04-17T01:36:23.866Z,14.70
2023-04-17T01:38:50.829Z,12.95
2023-04-17T01:41:18.889Z,16.10
2023-04-17T01:43:48.539Z,15.45
2023-04-17T01:46:15.559Z,15.45
2023-04-17T01:48:42.541Z,15.38
2023-04-17T01:51:09.670Z,14.57
2023-04-17T01:53:38.196Z,18.77
2023-04-17T01:56:05.384Z,12.80
2023-04-17T01:58:32.570Z,16.95
2023-04-17T02:01:00.640Z,15.95
2023-04-17T02:03:28.173Z,16.08
2023-04-17T02:05:55.745Z,13.10
2023-04-17T02:08:22.888Z,16.13
2023-04-17T02:10:50.248Z,18.23
2023-04-17T02:13:17.145Z,16.70
2023-04-17T02:15:44.537Z,15.77
2023-04-17T02:18:33.132Z,13.50
2023-04-17T02:21:00.527Z,16.05
2023-04-17T02:23:27.679Z,15.93
2023-04-17T02:25:54.619Z,16.48
2023-04-17T02:28:21.582Z,13.23
2023-04-17T02:30:48.866Z,19.30
2023-04-17T02:33:16.513Z,16.70
2023-04-17T02:35:44.045Z,14.55
2023-04-17T02:38:10.998Z,17.38
2023-04-17T02:40:39.740Z,15.73
2023-04-17T02:43:06.795Z,14.88
2023-04-17T02:45:35.048Z,14.57
2023-04-17T02:48:02.725Z,15.40
2023-04-17T02:50:30.316Z,17.83
2023-04-17T02:53:10.277Z,13.98
2023-04-17T02:55:37.487Z,14.95
2023-04-17T02:58:04.538Z,15.88
2023-04-17T03:00:31.521Z,14.25
2023-04-17T03:02:58.790Z,14.77
2023-04-17T03:05:26.130Z,15.50
2023-04-17T03:07:54.630Z,16.48
2023-04-17T03:10:21.765Z,15.50
2023-04-17T03:12:49.359Z,16.55
2023-04-17T03:15:16.598Z,14.55
2023-04-17T03:17:44.368Z,14.40
2023-04-17T03:20:11.696Z,15.25
2023-04-17T03:22:38.825Z,20.70
2023-04-17T03:25:07.396Z,15.75
2023-04-17T03:27:43.333Z,19.08
2023-04-17T03:30:10.776Z,16.35
2023-04-17T03:32:38.241Z,16.10
2023-04-17T03:35:05.706Z,19.10
2023-04-17T03:37:34.165Z,20.15
2023-04-17T03:40:01.566Z,17.13
2023-04-17T03:42:30.614Z,19.27
2023-04-17T03:44:57.713Z,14.45
2023-04-17T03:47:26.500Z,20.63
2023-04-17T03:49:53.998Z,15.68
2023-04-17T03:52:20.992Z,14.25
2023-04-17T03:54:52.929Z,15.90
2023-04-17T03:57:19.881Z,17.70
2023-04-17T03:59:47.581Z,15.68
2023-04-17T04:02:15.202Z,17.45
2023-04-17T04:04:43.122Z,16.92
2023-04-17T04:07:14.355Z,15.10
2023-04-17T04:09:41.324Z,16.52
2023-04-17T04:12:09.232Z,16.20
2023-04-17T04:14:41.930Z,16.45
2023-04-17T04:17:10.284Z,15.15
2023-04-17T04:19:38.514Z,19.30
2023-04-17T04:22:06.825Z,16.95
2023-04-17T04:24:44.128Z,16.58
2023-04-17T04:27:18.156Z,18.02
2023-04-17T04:29:49.014Z,16.83
2023-04-17T04:32:19.142Z,17.17
2023-04-17T04:34:47.268Z,15.52
2023-04-17T04:37:15.758Z,16.00
2023-04-17T04:39:47.412Z,18.27
2023-04-17T04:42:22.169Z,21.00
2023-04-17T04:45:10.411Z,15.52
2023-04-17T04:47:37.772Z,16.15
2023-04-17T04:50:05.277Z,17.55
2023-04-17T04:52:34.004Z,17.02
2023-04-17T04:55:06.580Z,14.48
2023-04-17T04:57:36.513Z,16.85
2023-04-17T05:00:06.642Z,19.10
2023-04-17T05:02:41.589Z,16.55
2023-04-17T05:05:11.187Z,18.27
2023-04-17T05:07:38.189Z,18.10
2023-04-17T05:10:07.994Z,14.63
2023-04-17T05:12:38.983Z,16.92
2023-04-17T05:15:08.476Z,17.42
2023-04-17T05:17:36.597Z,15.75
2023-04-17T05:20:07.057Z,14.75
2023-04-17T05:22:36.572Z,16.48
2023-04-17T05:25:09.130Z,16.58
2023-04-17T05:27:36.171Z,19.33
2023-04-17T05:30:03.567Z,17.67
2023-04-17T05:32:32.226Z,19.90
2023-04-17T05:35:06.628Z,20.63
2023-04-17T05:37:33.902Z,15.77
2023-04-17T05:40:01.568Z,18.90
2023-04-17T05:42:29.869Z,16.40
2023-04-17T05:44:57.320Z,19.05
2023-04-17T05:47:24.297Z,18.20
2023-04-17T05:49:57.458Z,18.95
2023-04-17T05:52:27.759Z,14.88
2023-04-17T05:54:54.739Z,16.25
2023-04-17T05:57:21.714Z,16.05
2023-04-17T05:59:49.407Z,18.65
2023-04-17T06:02:17.021Z,17.33
2023-04-17T06:04:44.515Z,17.25
2023-04-17T06:07:12.429Z,20.50
2023-04-17T06:09:40.922Z,17.55
2023-04-17T06:12:14.875Z,18.55
2023-04-17T06:14:43.893Z,20.10
2023-04-17T06:17:12.486Z,15.20
2023-04-17T06:19:39.827Z,17.10
2023-04-17T06:22:07.381Z,17.05
2023-04-17T06:24:34.639Z,18.02
2023-04-17T06:27:02.113Z,15.13
2023-04-17T06:29:30.181Z,16.50
2023-04-17T06:31:57.326Z,14.25
2023-04-17T06:34:24.434Z,16.25
2023-04-17T06:36:51.779Z,16.10
2023-04-17T06:39:18.756Z,17.95
2023-04-17T06:41:48.367Z,20.00
2023-04-17T06:44:20.719Z,17.48
2023-04-17T06:46:52.550Z,17.92
2023-04-17T06:49:19.802Z,18.13
2023-04-17T06:51:47.551Z,24.52
2023-04-17T06:54:14.538Z,16.20
2023-04-17T06:56:41.604Z,17.58
2023-04-17T06:59:09.147Z,24.35
2023-04-17T07:01:38.197Z,15.65
2023-04-17T07:04:06.173Z,19.00
2023-04-17T07:06:36.664Z,20.70
2023-04-17T07:09:06.559Z,18.40
2023-04-17T07:11:35.134Z,20.65
2023-04-17T07:14:02.207Z,20.13
2023-04-17T07:16:29.260Z,17.55
2023-04-17T07:18:56.297Z,21.27
2023-04-17T07:21:23.229Z,16.33
2023-04-17T07:23:52.388Z,16.85
2023-04-17T07:26:19.444Z,19.17
2023-04-17T07:28:46.544Z,20.63
2023-04-17T07:31:13.612Z,19.05
2023-04-17T07:33:43.848Z,16.98
2023-04-17T07:36:13.840Z,15.38
2023-04-17T07:38:42.334Z,16.08
2023-04-17T07:41:09.407Z,17.83
2023-04-17T07:43:36.531Z,14.30
2023-04-17T07:46:06.564Z,17.10
2023-04-17T07:48:33.934Z,12.90
2023-04-17T07:51:03.759Z,20.77
2023-04-17T07:53:31.090Z,16.48
2023-04-17T07:55:58.638Z,14.25
2023-04-17T07:58:29.540Z,14.63
2023-04-17T08:00:56.698Z,15.13
2023-04-17T08:03:27.070Z,13.30
2023-04-17T08:05:56.809Z,13.05
2023-04-17T08:08:24.042Z,12.57
2023-04-17T08:10:51.343Z,14.48
2023-04-17T08:13:19.505Z,14.02
2023-04-17T08:15:46.790Z,11.13
2023-04-17T08:18:14.025Z,11.75
2023-04-17T08:20:41.019Z,11.25
2023-04-17T08:23:07.922Z,11.40
2023-04-17T08:25:34.955Z,9.77
2023-04-17T08:28:02.293Z,12.05
2023-04-17T08:30:29.370Z,10.00
2023-04-17T08:32:57.758Z,9.15
2023-04-17T08:35:25.608Z,9.30
2023-04-17T08:37:52.647Z,10.32
2023-04-17T08:40:23.412Z,11.25
2023-04-17T08:42:52.137Z,8.68
2023-04-17T08:45:21.008Z,11.52
2023-04-17T08:47:48.411Z,12.73
2023-04-17T08:50:21.982Z,12.93
2023-04-17T08:52:51.156Z,10.50
2023-04-17T08:55:21.543Z,9.45
2023-04-17T08:58:18.040Z,10.68
2023-04-17T09:00:45.739Z,10.90
2023-04-17T09:03:14.300Z,10.07
2023-04-17T09:05:45.880Z,9.70
2023-04-17T09:08:25.522Z,9.93
2023-04-17T09:10:55.960Z,10.00
2023-04-17T09:13:25.609Z,10.98
2023-04-17T09:16:09.110Z,8.75
2023-04-17T09:18:38.050Z,8.50
2023-04-17T09:21:06.721Z,8.52
2023-04-17T09:23:55.506Z,12.05
2023-04-17T09:26:25.134Z,9.55
2023-04-17T09:29:08.616Z,9.20
2023-04-17T09:31:38.070Z,8.77
2023-04-17T09:34:07.814Z,10.45
2023-04-17T09:36:39.074Z,9.77
2023-04-17T09:39:21.061Z,10.02
2023-04-17T09:41:48.282Z,9.20
2023-04-17T09:44:28.009Z,10.75
2023-04-17T09:46:55.751Z,8.07
2023-04-17T09:49:42.865Z,11.25
2023-04-17T09:52:09.996Z,9.77
2023-04-17T09:54:39.985Z,10.02
2023-04-17T09:57:09.179Z,10.05
2023-04-17T09:59:41.654Z,8.52
2023-04-17T10:02:09.923Z,7.95
2023-04-17T10:04:41.535Z,9.77
2023-04-17T10:07:08.829Z,11.10
2023-04-17T10:09:36.000Z,9.98
2023-04-17T10:12:04.473Z,8.60
2023-04-17T10:14:34.129Z,9.77
2023-04-17T10:17:34.899Z,9.45
2023-04-17T10:20:25.121Z,9.77
2023-04-17T10:22:56.539Z,9.65
2023-04-17T10:25:28.038Z,8.13
2023-04-17T10:28:02.333Z,9.43
2023-04-17T10:30:55.711Z,10.43
2023-04-17T10:33:27.362Z,8.07
2023-04-17T10:35:55.064Z,7.18
2023-04-17T10:38:36.343Z,8.15
2023-04-17T10:41:09.139Z,8.35
2023-04-17T10:43:41.278Z,6.40
2023-04-17T10:46:12.803Z,7.25
2023-04-17T10:48:52.269Z,7.95
2023-04-17T10:51:27.895Z,7.88
2023-04-17T10:54:03.197Z,8.15
2023-04-17T10:56:37.374Z,8.63
2023-04-17T10:59:05.423Z,8.55
2023-04-17T11:01:55.989Z,7.22
2023-04-17T11:04:28.528Z,8.55
2023-04-17T11:06:55.955Z,11.02
2023-04-17T11:09:25.343Z,12.68
2023-04-17T11:11:52.329Z,7.97
2023-04-17T11:14:21.680Z,10.30
2023-04-17T11:16:51.387Z,8.60
2023-04-17T11:19:23.847Z,9.65
2023-04-17T11:21:53.775Z,10.20
2023-04-17T11:24:29.882Z,8.07
2023-04-17T11:27:03.699Z,8.75
2023-04-17T11:29:31.064Z,8.88
2023-04-17T11:32:00.285Z,8.60
2023-04-17T11:34:27.810Z,10.75
2023-04-17T11:36:59.742Z,10.18
2023-04-17T11:39:32.199Z,8.73
2023-04-17T11:41:59.175Z,9.40
2023-04-17T11:44:26.497Z,9.63
2023-04-17T11:46:55.364Z,9.07
2023-04-17T11:49:30.769Z,9.40
2023-04-17T11:52:01.391Z,10.30
2023-04-17T11:54:30.797Z,9.00
2023-04-17T11:57:06.383Z,9.43
2023-04-17T11:59:38.514Z,8.80
2023-04-17T12:02:07.580Z,8.75
2023-04-17T12:04:36.974Z,9.80
2023-04-17T12:07:05.525Z,9.07
2023-04-17T12:09:36.620Z,9.10
2023-04-17T12:12:08.009Z,11.45
2023-04-17T12:14:35.610Z,8.32
2023-04-17T12:17:02.990Z,9.40
2023-04-17T12:19:32.017Z,12.00
2023-04-17T12:21:59.712Z,10.35
2023-04-17T12:24:26.892Z,9.45
2023-04-17T12:26:54.632Z,10.63
2023-04-17T12:29:36.009Z,10.63
2023-04-17T12:32:10.540Z,11.20
2023-04-17T12:34:37.710Z,14.85
2023-04-17T12:37:04.734Z,9.27
2023-04-17T12:39:33.463Z,9.55
2023-04-17T12:42:00.783Z,9.13
2023-04-17T12:44:27.773Z,9.75
2023-04-17T12:46:54.821Z,9.48
2023-04-17T12:49:23.862Z,10.52
2023-04-17T12:51:51.531Z,11.05
2023-04-17T12:54:19.038Z,10.50
2023-04-17T12:56:46.098Z,10.75
2023-04-17T12:59:13.005Z,11.40
2023-04-17T13:01:40.237Z,11.48
2023-04-17T13:04:07.873Z,10.35
2023-04-17T13:06:34.955Z,8.93
2023-04-17T13:09:02.033Z,10.45
2023-04-17T13:11:29.077Z,8.85
2023-04-17T13:13:56.027Z,8.75
2023-04-17T13:16:23.226Z,10.23
2023-04-17T13:18:50.120Z,9.15
2023-04-17T13:21:16.968Z,9.43
2023-04-17T13:23:43.952Z,9.82
2023-04-17T13:26:11.027Z,9.52
2023-04-17T13:28:37.874Z,9.80
2023-04-17T13:31:04.817Z,10.55
2023-04-17T13:33:31.859Z,12.85
2023-04-17T13:35:58.994Z,9.75
2023-04-17T13:38:26.054Z,9.57
2023-04-17T13:40:52.900Z,9.40
2023-04-17T13:43:19.849Z,11.63
2023-04-17T13:45:46.764Z,10.90
2023-04-17T13:48:13.963Z,8.88
2023-04-17T13:50:42.630Z,8.93
2023-04-17T13:53:11.112Z,11.63
2023-04-17T13:55:38.334Z,9.15
2023-04-17T13:58:05.474Z,8.50
2023-04-17T14:00:32.477Z,8.43
2023-04-17T14:03:00.862Z,8.52
2023-04-17T14:05:28.041Z,9.43
2023-04-17T14:07:54.922Z,11.10
2023-04-17T14:10:22.026Z,7.38
2023-04-17T14:12:49.134Z,7.03
2023-04-17T14:15:16.310Z,8.35
2023-04-17T14:17:43.435Z,8.52
2023-04-17T14:20:11.577Z,9.75
2023-04-17T14:22:38.811Z,7.35
2023-04-17T14:25:06.178Z,6.68
2023-04-17T14:27:35.744Z,7.18
2023-04-17T14:30:02.839Z,7.93
2023-04-17T14:32:31.169Z,6.50
2023-04-17T14:34:58.265Z,6.88
2023-04-17T14:37:26.490Z,7.22
2023-04-17T14:39:53.545Z,9.10
2023-04-17T14:42:20.563Z,7.25
2023-04-17T14:44:47.582Z,6.72
2023-04-17T14:47:14.718Z,6.78
2023-04-17T14:49:42.110Z,6.35
2023-04-17T14:52:08.984Z,6.85
2023-04-17T14:54:35.949Z,8.23
2023-04-17T14:57:02.850Z,6.03
2023-04-17T14:59:29.843Z,6.43
2023-04-17T15:01:57.158Z,7.00
2023-04-17T15:04:24.458Z,8.93
2023-04-17T15:06:51.545Z,6.75
2023-04-17T15:09:18.571Z,4.45
2023-04-17T15:11:47.090Z,6.05
2023-04-17T15:14:14.279Z,6.00
2023-04-17T15:16:41.290Z,6.72
2023-04-17T15:19:11.010Z,6.60
2023-04-17T15:21:38.141Z,5.30
2023-04-17T15:24:07.543Z,6.00
2023-04-17T15:26:35.681Z,7.82
2023-04-17T15:29:03.857Z,8.02
2023-04-17T15:31:30.846Z,7.25
2023-04-17T15:33:57.991Z,5.82
2023-04-17T15:36:31.370Z,5.93
2023-04-17T15:38:58.304Z,8.98
2023-04-17T15:41:25.672Z,13.05
2023-04-17T15:43:52.712Z,7.93
2023-04-17T15:46:19.770Z,6.50
2023-04-17T15:48:57.733Z,8.95
2023-04-17T15:51:34.741Z,6.63
2023-04-17T15:54:01.696Z,7.78
2023-04-17T15:56:28.906Z,11.63
2023-04-17T15:58:55.933Z,5.70
2023-04-17T16:01:23.072Z,6.45
2023-04-17T16:03:50.232Z,6.95
2023-04-17T16:06:17.466Z,6.25
2023-04-17T16:08:44.391Z,6.68
2023-04-17T16:11:12.628Z,7.32
2023-04-17T16:13:39.791Z,7.25
2023-04-17T16:16:07.062Z,8.50
2023-04-17T16:18:33.989Z,10.05
2023-04-17T16:21:01.176Z,7.00
2023-04-17T16:23:28.267Z,8.10
2023-04-17T16:25:55.465Z,9.05
2023-04-17T16:28:23.981Z,7.05
2023-04-17T16:30:50.936Z,9.13
2023-04-17T16:33:18.083Z,9.13
2023-04-17T16:35:45.062Z,8.88
2023-04-17T16:38:12.164Z,9.50
2023-04-17T16:40:39.613Z,10.45
2023-04-17T16:43:06.557Z,8.13
2023-04-17T16:45:33.832Z,8.93
2023-04-17T16:48:01.145Z,13.55
2023-04-17T16:50:28.134Z,11.75
2023-04-17T16:52:55.068Z,8.65
2023-04-17T16:55:22.264Z,8.90
2023-04-17T16:57:49.208Z,8.70
2023-04-17T17:00:16.793Z,9.82
2023-04-17T17:02:44.127Z,11.07
2023-04-17T17:05:11.455Z,9.20
2023-04-17T17:07:38.569Z,8.00
2023-04-17T17:10:06.180Z,8.75
2023-04-17T17:12:33.153Z,12.10
2023-04-17T17:15:00.193Z,9.40
2023-04-17T17:17:30.192Z,8.18
2023-04-17T17:19:57.250Z,10.65
2023-04-17T17:22:24.173Z,9.07
2023-04-17T17:24:51.350Z,11.10
2023-04-17T17:27:18.398Z,8.73
2023-04-17T17:29:45.370Z,11.68
2023-04-17T17:32:12.449Z,11.65
2023-04-17T17:34:39.347Z,8.90
2023-04-17T17:37:06.451Z,9.60
2023-04-17T17:39:33.679Z,13.43
2023-04-17T17:42:03.071Z,10.40
2023-04-17T17:44:30.160Z,12.75
2023-04-17T17:46:57.092Z,9.38
2023-04-17T17:49:24.108Z,12.57
2023-04-17T17:51:51.317Z,11.52
2023-04-17T17:54:18.291Z,12.25
2023-04-17T17:56:45.266Z,12.35
2023-04-17T17:59:12.311Z,10.88
2023-04-17T18:01:40.339Z,8.80
2023-04-17T18:04:07.639Z,10.32
2023-04-17T18:06:34.689Z,8.55
2023-04-17T18:09:04.903Z,9.32
2023-04-17T18:11:32.010Z,9.20
2023-04-17T18:14:00.880Z,11.90
2023-04-17T18:16:32.797Z,9.52
2023-04-17T18:19:03.601Z,12.02
2023-04-17T18:21:31.681Z,9.20
2023-04-17T18:23:58.742Z,10.75
2023-04-17T18:26:31.967Z,14.00
2023-04-17T18:28:58.904Z,11.88
2023-04-17T18:31:26.920Z,9.32
2023-04-17T18:33:54.254Z,12.07
2023-04-17T18:36:21.319Z,9.50
2023-04-17T18:38:48.329Z,10.50
2023-04-17T18:41:15.372Z,10.32
2023-04-17T18:43:42.266Z,9.90
2023-04-17T18:46:09.325Z,11.50
2023-04-17T18:48:36.586Z,10.88
2023-04-17T18:51:14.859Z,11.98
2023-04-17T18:53:41.853Z,11.70
2023-04-17T18:56:10.890Z,11.25
2023-04-17T18:58:43.410Z,10.30
2023-04-17T19:01:10.863Z,10.68
2023-04-17T19:03:41.687Z,10.93
2023-04-17T19:06:08.776Z,10.38
2023-04-17T19:08:36.521Z,11.07
2023-04-17T19:11:03.686Z,12.82
2023-04-17T19:13:30.880Z,9.88
2023-04-17T19:15:57.955Z,15.20
2023-04-17T19:18:29.265Z,13.10
2023-04-17T19:20:56.392Z,13.05
2023-04-17T19:23:23.356Z,13.55
2023-04-17T19:25:56.455Z,11.25
2023-04-17T19:28:25.053Z,11.55
2023-04-17T19:30:52.077Z,13.00
2023-04-17T19:33:20.387Z,10.80
2023-04-17T19:35:47.377Z,13.00
2023-04-17T19:38:16.779Z,15.27
2023-04-17T19:40:48.064Z,14.40
2023-04-17T19:43:15.192Z,13.27
2023-04-17T19:45:42.408Z,15.50
2023-04-17T19:48:09.480Z,14.50
2023-04-17T19:50:36.548Z,13.18
2023-04-17T19:53:03.628Z,11.88
2023-04-17T19:55:30.786Z,13.63
2023-04-17T19:57:58.920Z,13.20
2023-04-17T20:00:25.988Z,13.10
2023-04-17T20:02:53.170Z,12.27
2023-04-17T20:05:20.365Z,12.80
2023-04-17T20:07:48.895Z,14.45
2023-04-17T20:10:16.921Z,13.23
2023-04-17T20:12:45.031Z,11.68
2023-04-17T20:15:12.143Z,12.90
2023-04-17T20:17:40.738Z,14.88
2023-04-17T20:20:08.264Z,15.48
2023-04-17T20:22:36.099Z,15.15
2023-04-17T20:25:03.216Z,13.95
2023-04-17T20:27:30.448Z,15.35
2023-04-17T20:29:57.473Z,10.75
2023-04-17T20:32:24.598Z,14.50
2023-04-17T20:34:51.709Z,13.25
2023-04-17T20:37:18.779Z,18.63
2023-04-17T20:39:45.710Z,14.25
2023-04-17T20:42:12.670Z,13.77
2023-04-17T20:44:39.552Z,15.32
2023-04-17T20:47:06.753Z,12.82
2023-04-17T20:49:34.083Z,13.90
2023-04-17T20:52:03.146Z,18.90
2023-04-17T20:54:30.046Z,14.68
2023-04-17T20:56:57.203Z,14.23
2023-04-17T20:59:24.192Z,13.20
2023-04-17T21:01:54.099Z,14.40
2023-04-17T21:04:22.098Z,17.90
2023-04-17T21:06:49.151Z,12.80
2023-04-17T21:09:16.532Z,15.73
2023-04-17T21:11:43.633Z,18.40
2023-04-17T21:14:14.083Z,11.73
2023-04-17T21:16:44.459Z,12.13
2023-04-17T21:19:11.948Z,17.75
2023-04-17T21:21:39.047Z,15.40
2023-04-17T21:24:06.276Z,11.98
2023-04-17T21:26:33.219Z,12.10
2023-04-17T21:29:00.494Z,18.23
2023-04-17T21:31:27.517Z,18.10
2023-04-17T21:33:54.464Z,15.98
2023-04-17T21:36:22.665Z,20.45
2023-04-17T21:38:49.746Z,15.10
2023-04-17T21:41:16.860Z,22.83
2023-04-17T21:43:44.075Z,15.85
2023-04-17T21:46:12.082Z,13.27
2023-04-17T21:48:39.606Z,15.70
2023-04-17T21:51:06.791Z,12.75
2023-04-17T21:53:35.786Z,14.05
2023-04-17T21:56:04.417Z,19.40
2023-04-17T21:58:33.359Z,16.75
2023-04-17T22:01:00.374Z,14.27
2023-04-17T22:03:27.639Z,18.52
2023-04-17T22:05:56.756Z,14.45
2023-04-17T22:08:24.434Z,16.75
2023-04-17T22:10:54.846Z,16.27
2023-04-17T22:13:21.991Z,15.60
2023-04-17T22:15:49.539Z,15.88
2023-04-17T22:18:16.666Z,18.00
2023-04-17T22:20:43.663Z,14.50
2023-04-17T22:23:10.584Z,14.50
2023-04-17T22:25:37.863Z,14.10
2023-04-17T22:28:05.039Z,16.73
2023-04-17T22:30:32.077Z,18.33
2023-04-17T22:32:59.050Z,17.27
2023-04-17T22:35:27.048Z,14.32
2023-04-17T22:37:54.018Z,17.98
2023-04-17T22:40:21.273Z,15.00
2023-04-17T22:42:49.359Z,18.40
2023-04-17T22:45:16.476Z,15.10
2023-04-17T22:47:43.428Z,16.95
2023-04-17T22:50:14.412Z,15.00
2023-04-17T22:52:41.601Z,19.63
2023-04-17T22:55:08.869Z,15.05
2023-04-17T22:57:36.261Z,16.42
2023-04-17T23:00:04.018Z,15.98
2023-04-17T23:02:31.306Z,17.67
2023-04-17T23:04:58.350Z,20.13
2023-04-17T23:07:25.392Z,17.08
2023-04-17T23:09:52.370Z,13.98
2023-04-17T23:12:19.301Z,16.90
2023-04-17T23:14:48.500Z,17.80
2023-04-17T23:17:15.495Z,19.48
2023-04-17T23:19:42.721Z,19.35
2023-04-17T23:22:10.138Z,20.55
2023-04-17T23:24:37.483Z,15.70
2023-04-17T23:27:04.686Z,17.20
2023-04-17T23:29:31.690Z,16.80
2023-04-17T23:31:58.739Z,17.13
2023-04-17T23:34:27.351Z,18.10
2023-04-17T23:36:54.469Z,21.13
2023-04-17T23:39:21.855Z,15.70
2023-04-17T23:41:49.064Z,13.95
2023-04-17T23:44:16.174Z,16.95
2023-04-17T23:46:43.285Z,19.30
2023-04-17T23:49:10.278Z,18.98
2023-04-17T23:51:37.433Z,15.13
2023-04-17T23:54:04.827Z,16.98
2023-04-17T23:56:31.958Z,18.67
2023-04-17T23:58:59.024Z,19.50
